Time;durP1;ratioP1;P1;durP2;ratioP2;P2;SDS_P1;SDS_P2;PMS_P1;PMS_P2;Temp;Humidity;BMP_temperature;BMP_pressure;BME280_temperature;BME280_humidity;BME280_pressure;Samples;Min_cycle;Max_cycle;Signal;HPM_P1;HPM_P2
2022/04/15 00:01:56;;;;;;;6.53;3.23;;;12.10;99.90;;;;;;5026478;28;20789;-77
2022/04/15 00:04:42;;;;;;;5.83;3.50;;;12.20;99.90;;;;;;5027399;28;20440;-77
2022/04/15 00:07:28;;;;;;;5.60;3.70;;;12.10;99.90;;;;;;5037192;28;20426;-76
2022/04/15 00:10:14;;;;;;;5.00;4.33;;;11.90;99.90;;;;;;5023510;28;20461;-76
2022/04/15 00:13:03;;;;;;;5.33;3.53;;;12.00;99.90;;;;;;5025441;28;20463;-77
2022/04/15 00:15:49;;;;;;;5.40;3.70;;;12.00;99.90;;;;;;5029089;28;20461;-77
2022/04/15 00:18:36;;;;;;;8.13;4.00;;;11.90;99.90;;;;;;5025466;28;20447;-77
2022/04/15 00:21:22;;;;;;;5.40;3.60;;;11.70;99.90;;;;;;5026125;28;23566;-77
2022/04/15 00:24:08;;;;;;;4.60;3.83;;;11.70;99.90;;;;;;5026696;28;21043;-77
2022/04/15 00:26:53;;;;;;;8.17;4.10;;;11.60;99.90;;;;;;5023280;28;20918;-77
2022/04/15 00:29:40;;;;;;;4.70;4.13;;;11.50;99.90;;;;;;5024636;28;20469;-75
2022/04/15 00:32:26;;;;;;;5.63;3.67;;;11.60;99.90;;;;;;5025111;28;20435;-77
2022/04/15 00:35:12;;;;;;;6.10;4.10;;;11.50;99.90;;;;;;5023346;28;20565;-77
2022/04/15 00:37:58;;;;;;;7.23;4.80;;;11.50;99.90;;;;;;5024781;28;20491;-75
2022/04/15 00:40:44;;;;;;;5.00;3.80;;;11.50;99.90;;;;;;5040029;28;20505;-77
2022/04/15 00:43:29;;;;;;;4.40;3.57;;;11.50;99.90;;;;;;5028498;28;20502;-77
2022/04/15 00:46:16;;;;;;;6.60;3.77;;;11.60;99.90;;;;;;5027652;28;20500;-77
2022/04/15 00:49:02;;;;;;;6.53;4.50;;;11.50;99.90;;;;;;5021191;28;20895;-76
2022/04/15 00:51:50;;;;;;;4.83;3.63;;;11.30;99.90;;;;;;5029981;28;20417;-76
2022/04/15 00:54:39;;;;;;;6.30;4.27;;;11.30;99.90;;;;;;5026224;28;20435;-76
2022/04/15 00:57:27;;;;;;;8.90;4.57;;;11.30;99.90;;;;;;5023490;28;20473;-77
2022/04/15 01:00:14;;;;;;;6.63;4.03;;;11.30;99.90;;;;;;5025066;28;20521;-77
2022/04/15 01:03:03;;;;;;;4.87;3.60;;;11.30;99.90;;;;;;5025604;28;20530;-77
2022/04/15 01:05:53;;;;;;;11.30;5.70;;;11.10;99.90;;;;;;5026802;28;21038;-77
2022/04/15 01:08:42;;;;;;;4.40;3.90;;;11.20;99.90;;;;;;5022355;28;20479;-77
2022/04/15 01:11:29;;;;;;;8.20;3.93;;;11.20;99.90;;;;;;5024940;28;20504;-77
2022/04/15 01:14:16;;;;;;;5.07;3.77;;;11.20;99.90;;;;;;5025422;28;20937;-77
2022/04/15 01:17:02;;;;;;;6.30;4.50;;;11.20;99.90;;;;;;5025692;28;20447;-75
2022/04/15 01:19:49;;;;;;;5.57;4.17;;;11.10;99.90;;;;;;5023940;28;20563;-76
2022/04/15 01:22:39;;;;;;;4.83;4.33;;;11.00;99.90;;;;;;5020466;28;20570;-76
2022/04/15 01:25:26;;;;;;;4.60;3.73;;;10.90;99.90;;;;;;5023796;28;20441;-76
2022/04/15 01:28:16;;;;;;;6.03;4.17;;;10.80;99.90;;;;;;5022294;28;20434;-77
2022/04/15 01:31:02;;;;;;;6.67;4.23;;;10.70;99.90;;;;;;5026062;28;20452;-75
2022/04/15 01:33:47;;;;;;;7.80;4.30;;;10.50;99.90;;;;;;5024587;28;20449;-77
2022/04/15 01:36:33;;;;;;;8.13;4.70;;;10.50;99.90;;;;;;5030032;28;20425;-76
2022/04/15 01:39:19;;;;;;;9.13;4.30;;;10.50;99.90;;;;;;5025754;28;20449;-75
2022/04/15 01:42:07;;;;;;;4.10;3.47;;;10.40;99.90;;;;;;5023689;28;20464;-77
2022/04/15 01:44:53;;;;;;;6.47;3.93;;;10.40;99.90;;;;;;5021786;28;20473;-77
2022/04/15 01:47:38;;;;;;;5.10;4.20;;;10.40;99.90;;;;;;5024812;28;20422;-77
2022/04/15 01:50:24;;;;;;;6.53;4.20;;;10.40;99.90;;;;;;5026007;28;20940;-77
2022/04/15 01:53:10;;;;;;;5.97;4.20;;;10.40;99.90;;;;;;5024911;28;20932;-77
2022/04/15 01:55:56;;;;;;;5.60;4.20;;;10.50;99.90;;;;;;5027410;28;20960;-77
2022/04/15 01:58:43;;;;;;;14.53;4.40;;;10.60;99.90;;;;;;5022810;28;20463;-77
2022/04/15 02:01:29;;;;;;;6.47;4.13;;;10.60;99.90;;;;;;5027097;28;20470;-77
2022/04/15 02:04:14;;;;;;;5.77;4.67;;;10.60;99.90;;;;;;5042146;28;20563;-77
2022/04/15 02:07:01;;;;;;;7.43;4.07;;;10.50;99.90;;;;;;5021209;28;20459;-76
2022/04/15 02:09:47;;;;;;;5.60;4.20;;;10.30;99.90;;;;;;5024373;28;20456;-77
2022/04/15 02:12:32;;;;;;;8.60;5.23;;;10.20;99.90;;;;;;5026953;28;20455;-76
2022/04/15 02:15:19;;;;;;;5.90;4.17;;;10.20;99.90;;;;;;5026899;28;20459;-77
2022/04/15 02:18:06;;;;;;;4.90;4.40;;;10.10;99.90;;;;;;5025327;28;20458;-77
2022/04/15 02:20:52;;;;;;;4.83;3.93;;;10.20;99.90;;;;;;5025810;28;20895;-77
2022/04/15 02:23:37;;;;;;;5.80;3.90;;;10.20;99.90;;;;;;5024270;28;20497;-77
2022/04/15 02:26:23;;;;;;;6.20;4.10;;;10.20;99.90;;;;;;5021923;28;20708;-76
2022/04/15 02:29:09;;;;;;;5.13;3.67;;;10.30;99.90;;;;;;5022793;28;20466;-77
2022/04/15 02:31:56;;;;;;;7.37;4.63;;;10.30;99.90;;;;;;5026662;28;20561;-76
2022/04/15 02:34:42;;;;;;;5.80;4.47;;;10.30;99.90;;;;;;5024691;28;20562;-76
2022/04/15 02:37:27;;;;;;;8.00;4.60;;;10.40;99.90;;;;;;5020471;28;20450;-76
2022/04/15 02:40:14;;;;;;;4.53;3.43;;;10.30;99.90;;;;;;5026947;28;20450;-76
2022/04/15 02:43:00;;;;;;;4.80;4.03;;;10.20;99.90;;;;;;5027617;28;20456;-76
2022/04/15 02:45:46;;;;;;;7.40;4.57;;;10.10;99.90;;;;;;5027618;28;20526;-77
2022/04/15 02:48:33;;;;;;;7.60;4.50;;;10.10;99.90;;;;;;5027061;28;20450;-76
2022/04/15 02:51:19;;;;;;;4.70;3.87;;;10.00;99.90;;;;;;5023029;28;20533;-77
2022/04/15 02:54:05;;;;;;;4.80;4.17;;;10.10;99.90;;;;;;5027328;28;20478;-77
2022/04/15 02:56:50;;;;;;;8.03;3.90;;;9.90;99.90;;;;;;5027874;28;20417;-75
2022/04/15 02:59:36;;;;;;;4.37;3.50;;;9.90;99.90;;;;;;5030416;28;20462;-77
2022/04/15 03:02:22;;;;;;;6.43;3.70;;;9.70;99.90;;;;;;5025789;28;20470;-75
2022/04/15 03:05:10;;;;;;;5.53;4.03;;;9.70;99.90;;;;;;5030281;28;20549;-76
2022/04/15 03:07:56;;;;;;;6.40;4.17;;;9.60;99.90;;;;;;5027381;28;20514;-77
2022/04/15 03:10:42;;;;;;;6.20;4.30;;;9.50;99.90;;;;;;5042224;22;20858;-86
2022/04/15 03:13:27;;;;;;;10.00;4.10;;;9.60;99.90;;;;;;5039538;28;20478;-86
2022/04/15 03:16:13;;;;;;;8.50;4.20;;;9.60;99.90;;;;;;5028178;28;20463;-86
2022/04/15 03:18:59;;;;;;;5.20;4.50;;;9.50;99.90;;;;;;5027884;28;20418;-86
2022/04/15 03:21:46;;;;;;;4.30;3.63;;;9.50;99.90;;;;;;5032616;28;20476;-86
2022/04/15 03:24:32;;;;;;;6.70;4.40;;;9.60;99.90;;;;;;5027545;28;20444;-86
2022/04/15 03:27:17;;;;;;;11.93;5.37;;;9.50;99.90;;;;;;5028450;28;20581;-86
2022/04/15 03:30:04;;;;;;;6.53;4.93;;;9.60;99.90;;;;;;5027365;28;20943;-86
2022/04/15 03:32:52;;;;;;;7.30;4.77;;;9.50;99.90;;;;;;5026817;28;20433;-86
2022/04/15 03:35:38;;;;;;;6.80;4.47;;;9.50;99.90;;;;;;5027696;28;20697;-86
2022/04/15 03:38:25;;;;;;;6.20;4.50;;;9.50;99.90;;;;;;5025269;28;20443;-86
2022/04/15 03:41:10;;;;;;;5.93;4.47;;;9.50;99.90;;;;;;5024065;28;20995;-86
2022/04/15 03:43:56;;;;;;;6.10;4.53;;;9.40;99.90;;;;;;5032742;28;20440;-85
2022/04/15 03:46:42;;;;;;;6.20;3.90;;;9.40;99.90;;;;;;5028634;28;21636;-86
2022/04/15 03:49:27;;;;;;;6.20;4.83;;;9.40;99.90;;;;;;5030276;28;21056;-86
2022/04/15 03:52:13;;;;;;;5.40;4.90;;;9.40;99.90;;;;;;5025589;28;20476;-86
2022/04/15 03:55:01;;;;;;;5.37;4.03;;;9.40;99.90;;;;;;5031694;28;20449;-86
2022/04/15 03:57:47;;;;;;;6.43;3.90;;;9.40;99.90;;;;;;5028431;28;20438;-86
2022/04/15 04:00:33;;;;;;;5.30;4.60;;;9.40;99.90;;;;;;5029372;28;20454;-86
2022/04/15 04:03:19;;;;;;;11.17;4.50;;;9.30;99.90;;;;;;5025989;28;20469;-85
2022/04/15 04:06:05;;;;;;;7.10;3.83;;;9.30;99.90;;;;;;5031791;28;20452;-85
2022/04/15 04:08:50;;;;;;;5.37;4.33;;;9.20;99.90;;;;;;5031043;28;20970;-85
2022/04/15 04:11:37;;;;;;;4.87;4.10;;;9.10;99.90;;;;;;5030902;28;20433;-86
2022/04/15 04:14:23;;;;;;;9.37;4.53;;;9.10;99.90;;;;;;5028336;28;20993;-87
2022/04/15 04:17:09;;;;;;;6.93;4.90;;;9.00;99.90;;;;;;5028766;28;20564;-85
2022/04/15 04:19:54;;;;;;;7.53;4.93;;;9.00;99.90;;;;;;5029203;28;20478;-86
2022/04/15 04:22:41;;;;;;;5.03;3.80;;;9.10;99.90;;;;;;5030574;28;20484;-85
2022/04/15 04:25:27;;;;;;;5.10;4.37;;;9.20;99.90;;;;;;5025639;28;20934;-86
2022/04/15 04:28:13;;;;;;;5.13;4.53;;;9.30;99.90;;;;;;5025403;28;20487;-86
2022/04/15 04:30:59;;;;;;;5.60;4.67;;;9.20;99.90;;;;;;5026010;28;20469;-86
2022/04/15 04:33:45;;;;;;;8.63;5.03;;;9.20;99.90;;;;;;5029690;28;20474;-86
2022/04/15 04:36:30;;;;;;;4.77;4.20;;;9.10;99.90;;;;;;5025287;28;20999;-86
2022/04/15 04:39:16;;;;;;;5.40;4.53;;;9.00;99.90;;;;;;5027167;28;20974;-86
2022/04/15 04:42:03;;;;;;;4.10;3.63;;;9.10;99.90;;;;;;5027509;28;20454;-86
2022/04/15 04:44:51;;;;;;;5.10;4.57;;;9.10;99.90;;;;;;5023054;28;21284;-86
2022/04/15 04:47:37;;;;;;;5.93;4.83;;;9.10;99.90;;;;;;5024063;28;20978;-86
2022/04/15 04:50:23;;;;;;;5.50;4.77;;;9.00;99.90;;;;;;5026895;28;20433;-86
2022/04/15 04:53:08;;;;;;;7.57;4.63;;;9.00;99.90;;;;;;5030497;28;20867;-86
2022/04/15 04:55:54;;;;;;;7.70;4.03;;;9.00;99.90;;;;;;5027070;28;20436;-86
2022/04/15 04:58:39;;;;;;;3.93;3.40;;;9.00;99.90;;;;;;5031363;28;20452;-85
2022/04/15 05:01:26;;;;;;;9.00;4.17;;;9.00;99.90;;;;;;5027566;28;20465;-87
2022/04/15 05:04:12;;;;;;;7.53;4.80;;;9.10;99.90;;;;;;5022936;28;20437;-85
2022/04/15 05:06:58;;;;;;;5.80;4.53;;;9.20;99.90;;;;;;5026398;28;20517;-85
2022/04/15 05:09:44;;;;;;;10.00;4.40;;;9.20;99.90;;;;;;5030467;28;20483;-85
2022/04/15 05:12:29;;;;;;;4.90;3.97;;;9.20;99.90;;;;;;5030035;28;20453;-86
2022/04/15 05:15:15;;;;;;;5.00;4.40;;;9.20;99.90;;;;;;5024526;28;20822;-86
2022/04/15 05:18:02;;;;;;;4.50;4.00;;;9.30;99.90;;;;;;5022583;28;20527;-85
2022/04/15 05:20:48;;;;;;;7.27;4.30;;;9.30;99.90;;;;;;5028315;28;20420;-84
2022/04/15 05:23:33;;;;;;;5.70;4.97;;;9.40;99.90;;;;;;5025596;28;20555;-86
2022/04/15 05:26:20;;;;;;;6.23;5.30;;;9.60;99.90;;;;;;5027238;28;20446;-86
2022/04/15 05:29:08;;;;;;;6.03;5.13;;;9.80;99.90;;;;;;5030198;28;20449;-85
2022/04/15 05:31:53;;;;;;;6.40;5.00;;;9.80;99.90;;;;;;5030428;28;20417;-86
2022/04/15 05:34:42;;;;;;;5.97;4.67;;;9.90;99.90;;;;;;5024817;28;20440;-86
2022/04/15 05:37:28;;;;;;;5.30;4.13;;;9.90;99.90;;;;;;5025163;28;20433;-87
2022/04/15 05:40:14;;;;;;;7.77;4.73;;;10.00;99.90;;;;;;5025340;28;20454;-86
2022/04/15 05:42:59;;;;;;;10.77;5.40;;;10.00;99.90;;;;;;5030815;28;20468;-85
2022/04/15 05:45:45;;;;;;;5.37;4.87;;;10.10;99.90;;;;;;5023333;28;20801;-86
2022/04/15 05:48:30;;;;;;;11.37;6.77;;;10.20;99.90;;;;;;5022613;28;20424;-85
2022/04/15 05:51:19;;;;;;;6.60;5.60;;;10.20;99.90;;;;;;5028102;28;20778;-86
2022/04/15 05:54:04;;;;;;;7.00;6.07;;;10.30;99.90;;;;;;5025766;28;20508;-86
2022/04/15 05:56:50;;;;;;;8.20;6.50;;;10.30;99.90;;;;;;5027979;28;20431;-85
2022/04/15 05:59:36;;;;;;;5.83;4.83;;;10.50;99.90;;;;;;5027931;28;20955;-85
2022/04/15 06:02:22;;;;;;;8.17;6.37;;;10.50;99.90;;;;;;5022137;28;20995;-85
2022/04/15 06:05:09;;;;;;;9.50;7.63;;;10.60;99.90;;;;;;5017481;28;20991;-85
2022/04/15 06:07:57;;;;;;;8.40;7.07;;;10.50;99.90;;;;;;5024697;28;21001;-86
2022/04/15 06:10:42;;;;;;;10.03;7.20;;;10.60;99.90;;;;;;5029331;28;20656;-86
2022/04/15 06:13:29;;;;;;;9.53;6.57;;;10.70;99.90;;;;;;5025120;28;20500;-86
2022/04/15 06:16:17;;;;;;;8.53;6.80;;;10.80;99.90;;;;;;5025547;28;20452;-85
2022/04/15 06:19:02;;;;;;;7.60;6.30;;;11.00;99.90;;;;;;5029368;28;20498;-86
2022/04/15 06:21:49;;;;;;;7.97;6.60;;;11.10;99.90;;;;;;5028384;28;21160;-85
2022/04/15 06:24:36;;;;;;;12.90;7.80;;;11.20;99.90;;;;;;5024369;28;20460;-86
2022/04/15 06:27:21;;;;;;;10.03;7.30;;;11.40;99.90;;;;;;5030699;28;20442;-86
2022/04/15 06:30:08;;;;;;;11.23;8.30;;;11.60;99.90;;;;;;5031392;28;20444;-86
2022/04/15 06:32:54;;;;;;;10.87;8.80;;;11.70;99.90;;;;;;5049702;22;20497;-72
2022/04/15 06:35:40;;;;;;;9.37;7.87;;;11.70;99.90;;;;;;5050888;28;20433;-72
2022/04/15 06:38:26;;;;;;;12.83;8.90;;;11.80;99.90;;;;;;5052457;28;20458;-72
2022/04/15 06:41:13;;;;;;;15.87;10.13;;;11.90;99.90;;;;;;5045069;28;20483;-72
2022/04/15 06:43:59;;;;;;;18.83;9.53;;;11.90;99.90;;;;;;5036716;28;20418;-72
2022/04/15 06:46:44;;;;;;;10.60;9.30;;;12.00;99.90;;;;;;5037849;28;20467;-72
2022/04/15 06:49:30;;;;;;;13.50;10.17;;;12.20;99.90;;;;;;5039571;28;20426;-72
2022/04/15 06:52:17;;;;;;;10.93;9.07;;;12.30;99.90;;;;;;5039285;28;20418;-72
2022/04/15 06:55:03;;;;;;;14.53;10.37;;;12.50;99.90;;;;;;5042571;28;21124;-72
2022/04/15 06:57:50;;;;;;;15.70;11.33;;;12.60;99.90;;;;;;5037245;28;20902;-72
2022/04/15 07:00:37;;;;;;;14.43;10.87;;;12.80;99.90;;;;;;5039337;28;20448;-72
2022/04/15 07:03:24;;;;;;;12.10;9.67;;;12.80;99.90;;;;;;5038289;28;20594;-72
2022/04/15 07:06:10;;;;;;;12.30;11.03;;;13.00;99.90;;;;;;5034515;28;20411;-72
2022/04/15 07:08:56;;;;;;;16.20;13.33;;;13.00;99.90;;;;;;5042066;28;20421;-72
2022/04/15 07:11:41;;;;;;;18.97;14.87;;;13.20;99.90;;;;;;5036401;28;20501;-72
2022/04/15 07:14:30;;;;;;;16.93;14.03;;;13.40;99.90;;;;;;5044138;28;20436;-72
2022/04/15 07:17:15;;;;;;;20.57;14.43;;;13.50;99.90;;;;;;5042981;28;20959;-72
2022/04/15 07:20:01;;;;;;;15.30;13.53;;;13.60;99.90;;;;;;5036978;28;20427;-72
2022/04/15 07:22:46;;;;;;;18.30;14.10;;;13.70;99.90;;;;;;5038187;28;20459;-72
2022/04/15 07:25:34;;;;;;;17.07;14.17;;;13.80;99.90;;;;;;5040596;28;20805;-72
2022/04/15 07:28:20;;;;;;;18.50;14.17;;;14.00;99.90;;;;;;5039887;28;21201;-72
2022/04/15 07:31:07;;;;;;;16.80;13.00;;;14.10;99.90;;;;;;5030862;28;20437;-72
2022/04/15 07:33:53;;;;;;;20.00;13.30;;;14.30;99.90;;;;;;5040134;28;20934;-72
2022/04/15 07:36:48;;;;;;;16.10;13.67;;;14.50;99.90;;;;;;5053356;28;21030;-72
2022/04/15 07:39:34;;;;;;;19.63;16.17;;;14.60;99.90;;;;;;5044989;28;20464;-72
2022/04/15 07:42:19;;;;;;;20.97;15.90;;;14.70;99.90;;;;;;5034426;28;20453;-72
2022/04/15 07:45:06;;;;;;;23.70;14.80;;;14.90;99.90;;;;;;5038391;28;20778;-72
2022/04/15 07:47:53;;;;;;;18.40;15.37;;;15.00;99.90;;;;;;5031808;28;20427;-72
2022/04/15 07:50:39;;;;;;;17.27;14.27;;;15.00;99.90;;;;;;5032154;28;20449;-72
2022/04/15 07:53:25;;;;;;;18.80;15.30;;;15.10;99.90;;;;;;5033512;28;20410;-72
2022/04/15 07:56:11;;;;;;;21.57;15.03;;;15.10;99.90;;;;;;5028737;28;20512;-72
2022/04/15 07:58:56;;;;;;;19.50;13.93;;;15.20;99.90;;;;;;5035571;28;20553;-72
2022/04/15 08:01:42;;;;;;;19.57;14.80;;;15.20;99.90;;;;;;5032054;28;20431;-73
2022/04/15 08:04:31;;;;;;;20.17;14.57;;;15.30;99.90;;;;;;5033827;28;20415;-72
2022/04/15 08:07:17;;;;;;;20.53;14.77;;;15.40;99.90;;;;;;5032973;28;20553;-70
2022/04/15 08:10:03;;;;;;;18.40;13.30;;;15.50;99.90;;;;;;5028508;28;20456;-70
2022/04/15 08:12:49;;;;;;;18.63;13.90;;;15.60;99.90;;;;;;5035556;28;20403;-70
2022/04/15 08:15:34;;;;;;;17.63;14.77;;;15.70;99.90;;;;;;5036035;28;20431;-70
2022/04/15 08:18:20;;;;;;;19.30;13.77;;;15.90;99.90;;;;;;5036288;28;20489;-70
2022/04/15 08:21:07;;;;;;;14.43;12.93;;;16.00;99.90;;;;;;5030791;28;20442;-70
2022/04/15 08:23:52;;;;;;;17.20;12.43;;;16.10;99.90;;;;;;5030107;28;20475;-70
2022/04/15 08:26:39;;;;;;;17.27;12.17;;;16.20;99.90;;;;;;5030322;28;20431;-70
2022/04/15 08:29:25;;;;;;;17.30;12.00;;;16.30;99.90;;;;;;5034573;28;20981;-70
2022/04/15 08:32:11;;;;;;;13.93;11.87;;;16.50;98.20;;;;;;5030315;28;20983;-70
2022/04/15 08:34:56;;;;;;;16.43;10.80;;;16.60;97.70;;;;;;5036476;28;20513;-70
2022/04/15 08:37:43;;;;;;;14.73;10.70;;;16.70;95.30;;;;;;5031846;28;20455;-70
2022/04/15 08:40:31;;;;;;;17.33;10.70;;;16.80;93.20;;;;;;5027957;28;20468;-70
2022/04/15 08:43:17;;;;;;;13.00;10.73;;;16.80;92.60;;;;;;5030951;28;20459;-70
2022/04/15 08:46:05;;;;;;;15.63;10.60;;;16.80;92.00;;;;;;5039235;28;20410;-70
2022/04/15 08:48:53;;;;;;;16.67;11.03;;;16.90;92.70;;;;;;5028112;28;20584;-70
2022/04/15 08:51:41;;;;;;;14.83;10.87;;;16.90;90.80;;;;;;5029343;28;20464;-70
2022/04/15 08:54:28;;;;;;;14.10;10.60;;;17.00;90.90;;;;;;5033503;28;20444;-70
2022/04/15 08:57:14;;;;;;;16.87;11.40;;;17.00;90.80;;;;;;5029767;28;20456;-70
2022/04/15 09:00:01;;;;;;;15.70;10.70;;;17.00;89.40;;;;;;5028071;28;20430;-70
2022/04/15 09:02:47;;;;;;;16.63;11.60;;;16.90;87.90;;;;;;5038513;28;20622;-70
2022/04/15 09:05:33;;;;;;;14.73;11.20;;;16.90;83.20;;;;;;5031736;28;20435;-70
2022/04/15 09:08:19;;;;;;;13.97;11.13;;;16.90;82.40;;;;;;5031065;28;20456;-70
2022/04/15 09:11:06;;;;;;;13.53;10.73;;;16.80;80.50;;;;;;5029217;28;20602;-70
2022/04/15 09:13:53;;;;;;;14.17;10.20;;;16.80;81.30;;;;;;5046670;22;20686;-76
2022/04/15 09:16:40;;;;;;;15.83;9.90;;;16.90;83.30;;;;;;5030041;28;20464;-76
2022/04/15 09:19:26;;;;;;;11.40;9.30;;;16.90;81.40;;;;;;5031247;28;20451;-76
2022/04/15 09:22:18;;;;;;;13.50;9.53;;;17.00;80.90;;;;;;5035192;28;20452;-76
2022/04/15 09:25:04;;;;;;;15.27;10.50;;;17.00;77.70;;;;;;5017905;28;20427;-76
2022/04/15 09:27:56;;;;;;;16.53;10.50;;;17.00;78.00;;;;;;5014058;28;20511;-76
2022/04/15 09:30:42;;;;;;;12.67;9.63;;;17.00;76.80;;;;;;5012644;28;20454;-76
2022/04/15 09:33:29;;;;;;;10.90;7.63;;;16.90;78.70;;;;;;5013348;28;20432;-76
2022/04/15 09:36:23;;;;;;;13.03;8.10;;;17.00;79.50;;;;;;5014463;28;20532;-78
2022/04/15 09:39:11;;;;;;;9.47;6.67;;;17.10;78.10;;;;;;5004406;28;20794;-76
2022/04/15 09:41:57;;;;;;;10.33;6.30;;;17.30;70.30;;;;;;5011023;28;20457;-76
2022/04/15 09:44:46;;;;;;;8.27;6.83;;;17.50;69.50;;;;;;5016171;28;20459;-77
2022/04/15 09:47:32;;;;;;;9.50;6.40;;;17.40;65.00;;;;;;5014595;28;20973;-76
2022/04/15 09:50:23;;;;;;;13.80;5.10;;;17.20;65.40;;;;;;5010437;28;20435;-77
2022/04/15 09:53:11;;;;;;;9.70;6.27;;;17.30;66.20;;;;;;5013661;28;20480;-77
2022/04/15 09:55:57;;;;;;;7.60;4.47;;;17.60;67.00;;;;;;5011306;28;20452;-76
2022/04/15 09:58:45;;;;;;;7.30;5.73;;;17.80;65.70;;;;;;5005728;28;20854;-76
2022/04/15 10:01:34;;;;;;;4.27;2.73;;;18.10;64.10;;;;;;5015536;28;20804;-76
2022/04/15 10:04:20;;;;;;;10.63;5.00;;;18.30;59.40;;;;;;5004589;28;20481;-77
2022/04/15 10:07:08;;;;;;;8.97;5.80;;;18.30;59.10;;;;;;5012186;28;20424;-76
2022/04/15 10:09:55;;;;;;;10.30;5.50;;;18.10;60.70;;;;;;5012699;28;20473;-77
2022/04/15 10:12:41;;;;;;;7.40;5.20;;;18.10;63.00;;;;;;5004138;28;20815;-77
2022/04/15 10:15:28;;;;;;;6.53;4.93;;;18.20;62.80;;;;;;5004859;28;20808;-76
2022/04/15 10:18:16;;;;;;;8.80;5.73;;;18.30;63.60;;;;;;5010482;28;20445;-76
2022/04/15 10:21:03;;;;;;;8.93;4.70;;;18.40;62.30;;;;;;5012042;28;20492;-77
2022/04/15 10:23:49;;;;;;;7.67;4.33;;;18.60;63.30;;;;;;5015965;28;20587;-76
2022/04/15 10:26:35;;;;;;;3.73;2.73;;;18.80;61.40;;;;;;5008566;28;20419;-76
2022/04/15 10:29:20;;;;;;;9.33;3.60;;;19.00;59.60;;;;;;5012970;28;22933;-76
2022/04/15 10:32:14;;;;;;;5.63;4.20;;;18.90;54.10;;;;;;5010677;28;20974;-77
2022/04/15 10:35:06;;;;;;;4.03;2.90;;;19.20;56.30;;;;;;5010822;28;20432;-76
2022/04/15 10:38:01;;;;;;;4.97;3.70;;;19.00;51.10;;;;;;5004965;28;20461;-76
2022/04/15 10:40:46;;;;;;;4.00;2.17;;;19.00;52.20;;;;;;5016413;28;20437;-78
2022/04/15 10:43:32;;;;;;;3.40;2.63;;;19.20;53.10;;;;;;5007779;28;20477;-77
2022/04/15 10:46:18;;;;;;;4.40;2.23;;;19.40;51.80;;;;;;5008481;28;20440;-76
2022/04/15 10:49:20;;;;;;;3.33;2.20;;;19.70;51.10;;;;;;5012279;28;20438;-77
2022/04/15 10:52:21;;;;;;;4.87;1.57;;;19.90;48.60;;;;;;5012438;28;20431;-76
2022/04/15 10:55:08;;;;;;;3.53;1.63;;;20.20;46.10;;;;;;5009264;28;20442;-76
2022/04/15 10:58:13;;;;;;;5.73;2.33;;;20.30;43.50;;;;;;5007290;28;20497;-77
2022/04/15 11:01:17;;;;;;;3.60;2.10;;;20.50;44.40;;;;;;5008326;28;20547;-77
2022/04/15 11:04:08;;;;;;;2.70;1.90;;;20.60;41.80;;;;;;5012105;28;20569;-77
2022/04/15 11:06:55;;;;;;;3.90;1.60;;;20.60;41.60;;;;;;5011461;28;20468;-77
2022/04/15 11:09:42;;;;;;;5.87;2.10;;;20.70;43.70;;;;;;5009754;28;20412;-77
2022/04/15 11:12:42;;;;;;;6.33;2.30;;;20.90;43.30;;;;;;5007780;28;20839;-77
2022/04/15 11:15:54;;;;;;;3.87;2.40;;;20.80;41.40;;;;;;5010986;28;20444;-76
2022/04/15 11:18:51;;;;;;;3.60;2.37;;;20.70;41.30;;;;;;5016534;28;20436;-77
2022/04/15 11:21:39;;;;;;;5.30;2.20;;;20.70;43.50;;;;;;5017440;28;20440;-77
2022/04/15 11:24:26;;;;;;;4.27;2.47;;;20.80;42.70;;;;;;5014860;28;20563;-77
2022/04/15 11:27:15;;;;;;;3.87;2.43;;;20.80;40.40;;;;;;5011102;28;20453;-77
2022/04/15 11:30:04;;;;;;;6.43;2.83;;;20.90;40.50;;;;;;5012742;28;20516;-77
2022/04/15 11:32:53;;;;;;;3.13;2.20;;;21.10;40.10;;;;;;5024683;28;20558;-79
2022/04/15 11:35:39;;;;;;;5.37;3.10;;;21.20;40.90;;;;;;5015878;28;20584;-78
2022/04/15 11:38:24;;;;;;;3.47;2.20;;;21.20;36.10;;;;;;5012020;28;20460;-78
2022/04/15 11:41:10;;;;;;;3.73;2.30;;;20.90;37.80;;;;;;5009364;28;20450;-77
2022/04/15 11:43:59;;;;;;;4.50;3.03;;;20.70;40.30;;;;;;5014742;28;20867;-77
2022/04/15 11:46:47;;;;;;;3.43;1.87;;;20.40;40.10;;;;;;5011648;28;20448;-78
2022/04/15 11:49:32;;;;;;;2.40;1.53;;;20.50;40.10;;;;;;5014643;28;20512;-79
2022/04/15 11:52:23;;;;;;;3.10;1.90;;;20.70;40.30;;;;;;5013705;28;20942;-77
2022/04/15 11:55:16;;;;;;;3.30;1.90;;;20.80;39.90;;;;;;5009666;28;20420;-77
2022/04/15 11:58:02;;;;;;;2.10;1.27;;;20.70;38.10;;;;;;5012900;28;20453;-77
2022/04/15 12:00:54;;;;;;;4.43;1.43;;;20.70;39.70;;;;;;5013265;28;20961;-77
2022/04/15 12:03:43;;;;;;;3.07;1.70;;;20.90;40.40;;;;;;5012549;28;20477;-78
2022/04/15 12:06:29;;;;;;;3.67;1.30;;;21.10;37.60;;;;;;5012463;28;20452;-78
2022/04/15 12:09:17;;;;;;;2.57;1.30;;;21.30;37.30;;;;;;5018170;28;20457;-78
2022/04/15 12:12:03;;;;;;;4.37;1.70;;;21.30;37.20;;;;;;5019126;28;20958;-77
2022/04/15 12:14:51;;;;;;;3.23;1.03;;;21.20;35.50;;;;;;5012502;28;20485;-78
2022/04/15 12:17:38;;;;;;;4.13;1.20;;;21.30;35.80;;;;;;5011475;28;20458;-78
2022/04/15 12:20:24;;;;;;;3.10;1.20;;;21.40;34.40;;;;;;5018244;28;20445;-78
2022/04/15 12:23:13;;;;;;;3.17;0.90;;;21.40;34.30;;;;;;5012804;28;20479;-77
2022/04/15 12:26:09;;;;;;;2.80;1.10;;;21.50;36.50;;;;;;5009074;28;20441;-77
2022/04/15 12:32:25;;;;;;;2.57;0.90;;;21.60;35.60;;;;;;5010978;28;22995;-78
2022/04/15 12:35:13;;;;;;;4.23;1.37;;;21.50;34.70;;;;;;5012058;28;20487;-77
2022/04/15 12:38:00;;;;;;;2.70;1.17;;;21.10;36.50;;;;;;5012528;28;20433;-78
2022/04/15 12:40:45;;;;;;;3.00;1.03;;;21.30;37.70;;;;;;5011901;28;21042;-78
2022/04/15 12:43:31;;;;;;;3.23;0.80;;;21.30;35.50;;;;;;5011587;28;20483;-78
2022/04/15 12:46:17;;;;;;;3.33;1.43;;;21.60;36.00;;;;;;5010074;28;20448;-79
2022/04/15 12:49:03;;;;;;;2.27;1.03;;;21.70;35.10;;;;;;5012020;28;20446;-78
2022/04/15 12:51:50;;;;;;;3.87;1.77;;;21.60;32.60;;;;;;5006480;28;20437;-78
2022/04/15 12:54:55;;;;;;;2.73;1.00;;;21.70;33.30;;;;;;5012129;28;20460;-78
2022/04/15 12:57:42;;;;;;;2.90;1.00;;;22.00;34.00;;;;;;5019474;28;21175;-77
2022/04/15 13:00:29;;;;;;;3.37;1.53;;;22.20;33.30;;;;;;5015179;28;21064;-77
2022/04/15 13:03:17;;;;;;;5.30;1.33;;;22.00;33.00;;;;;;5013864;28;20476;-76
2022/04/15 13:06:05;;;;;;;4.70;1.50;;;22.10;32.70;;;;;;5008184;28;20934;-77
2022/04/15 13:08:53;;;;;;;4.47;1.63;;;22.20;33.50;;;;;;5016411;28;20428;-78
2022/04/15 13:11:38;;;;;;;2.90;1.20;;;22.40;34.70;;;;;;5010770;28;20528;-76
2022/04/15 13:14:24;;;;;;;2.43;1.07;;;22.60;33.80;;;;;;5008770;28;20484;-77
2022/04/15 13:17:10;;;;;;;2.50;1.00;;;23.00;32.80;;;;;;5005031;28;20472;-77
2022/04/15 13:19:55;;;;;;;2.23;0.90;;;22.90;33.50;;;;;;5009969;28;20454;-76
2022/04/15 13:22:42;;;;;;;4.03;1.23;;;22.90;33.20;;;;;;5007508;28;20437;-76
2022/04/15 13:25:29;;;;;;;3.80;1.20;;;23.10;32.60;;;;;;5001280;28;20981;-75
2022/04/15 13:28:16;;;;;;;8.23;1.50;;;23.40;32.10;;;;;;5012376;28;20453;-76
2022/04/15 13:31:02;;;;;;;2.33;1.30;;;23.70;31.10;;;;;;5006956;28;20441;-75
2022/04/15 13:33:47;;;;;;;3.83;1.33;;;23.60;30.40;;;;;;5010853;28;20978;-75
2022/04/15 13:36:34;;;;;;;4.20;1.23;;;23.00;32.10;;;;;;5010770;28;20477;-76
2022/04/15 13:39:20;;;;;;;2.30;1.13;;;22.50;33.30;;;;;;5007704;28;20441;-76
2022/04/15 13:42:10;;;;;;;3.17;1.03;;;22.20;32.80;;;;;;5010843;28;20461;-76
2022/04/15 13:44:55;;;;;;;2.00;1.00;;;22.60;32.70;;;;;;5001844;28;22567;-75
2022/04/15 13:47:41;;;;;;;6.93;1.10;;;22.80;32.10;;;;;;5009043;28;20955;-75
2022/04/15 13:50:27;;;;;;;4.80;1.47;;;23.10;31.20;;;;;;5008500;28;20581;-76
2022/04/15 13:59:21;;;;;;;2.63;1.10;;;23.40;31.10;;;;;;5007527;28;20463;-76
2022/04/15 14:02:08;;;;;;;2.90;0.90;;;23.90;29.90;;;;;;5011680;28;20506;-76
2022/04/15 14:04:54;;;;;;;3.27;1.20;;;23.60;30.90;;;;;;5004641;28;20460;-76
2022/04/15 14:07:39;;;;;;;2.77;1.20;;;23.60;31.90;;;;;;5009629;28;20488;-75
2022/04/15 14:10:25;;;;;;;7.23;1.07;;;24.00;31.40;;;;;;5002178;28;20440;-77
2022/04/15 14:13:12;;;;;;;8.10;0.97;;;24.00;30.00;;;;;;5004236;28;20473;-77
2022/04/15 14:15:59;;;;;;;3.50;1.00;;;23.70;29.30;;;;;;5004157;28;20440;-78
2022/04/15 14:18:45;;;;;;;3.07;1.20;;;23.90;29.60;;;;;;5009173;28;20434;-77
2022/04/15 14:21:32;;;;;;;3.13;0.90;;;23.70;28.20;;;;;;5006704;28;20445;-77
2022/04/15 14:24:18;;;;;;;3.50;1.07;;;23.80;29.50;;;;;;5001892;28;21804;-78
2022/04/15 14:27:03;;;;;;;5.37;1.50;;;23.80;29.90;;;;;;5010610;28;20453;-77
2022/04/15 14:29:49;;;;;;;2.67;0.97;;;24.10;28.70;;;;;;5010013;28;20448;-77
2022/04/15 14:32:36;;;;;;;2.50;0.83;;;24.10;28.60;;;;;;5009631;28;20450;-77
2022/04/15 14:35:22;;;;;;;4.37;1.30;;;24.30;29.90;;;;;;5009180;28;20444;-78
2022/04/15 14:38:08;;;;;;;2.83;1.13;;;24.00;28.20;;;;;;5013609;28;20446;-79